createdAt,value
2017-07-06T00:00:19.586Z,0
2017-07-06T00:01:00.064Z,0
2017-07-06T00:01:40.593Z,0
2017-07-06T00:02:21.108Z,0
2017-07-06T00:03:01.625Z,0
2017-07-06T00:03:42.161Z,0
2017-07-06T00:04:22.649Z,0
2017-07-06T00:05:03.172Z,0
2017-07-06T00:05:43.644Z,0
2017-07-06T00:06:24.210Z,0
2017-07-06T00:07:04.755Z,0
2017-07-06T00:07:45.176Z,0
2017-07-06T00:08:25.707Z,0
2017-07-06T00:09:06.218Z,0
2017-07-06T00:09:46.705Z,0
2017-07-06T00:10:27.239Z,0
2017-07-06T00:11:07.709Z,0
2017-07-06T00:11:48.217Z,0
2017-07-06T00:12:28.706Z,0
2017-07-06T00:13:09.185Z,0
2017-07-06T00:13:49.718Z,0
2017-07-06T00:14:30.218Z,0
2017-07-06T00:15:10.720Z,0
2017-07-06T00:15:51.215Z,0
2017-07-06T00:16:31.763Z,0
2017-07-06T00:17:12.207Z,0
2017-07-06T00:17:52.713Z,0
2017-07-06T00:18:33.257Z,0
2017-07-06T00:19:13.734Z,0
2017-07-06T00:19:54.215Z,0
2017-07-06T00:20:34.730Z,0
2017-07-06T00:21:15.255Z,0
2017-07-06T00:21:55.732Z,0
2017-07-06T00:22:36.288Z,0
2017-07-06T00:23:16.722Z,0
2017-07-06T00:23:57.277Z,0
2017-07-06T00:24:37.737Z,0
2017-07-06T00:25:18.249Z,0
2017-07-06T00:25:58.758Z,0
2017-07-06T00:26:39.262Z,0
2017-07-06T00:27:19.810Z,0
2017-07-06T00:28:00.295Z,0
2017-07-06T00:28:40.962Z,0
2017-07-06T00:29:21.480Z,0
2017-07-06T00:30:01.955Z,0
2017-07-06T00:30:42.507Z,0
2017-07-06T00:31:23.010Z,0
2017-07-06T00:32:03.485Z,0
2017-07-06T00:32:43.971Z,0
2017-07-06T00:33:24.526Z,0
2017-07-06T00:34:04.969Z,0
2017-07-06T00:34:45.483Z,0
2017-07-06T00:35:25.990Z,0
2017-07-06T00:36:06.469Z,0
2017-07-06T00:36:46.975Z,0
2017-07-06T00:37:27.465Z,0
2017-07-06T00:38:08.014Z,0
2017-07-06T00:38:48.522Z,0
2017-07-06T00:39:28.998Z,0
2017-07-06T00:40:09.498Z,0
2017-07-06T00:40:50.014Z,0
2017-07-06T00:41:30.627Z,0
2017-07-06T00:42:11.126Z,0
2017-07-06T00:42:51.705Z,0
2017-07-06T00:43:32.238Z,0
2017-07-06T00:44:12.736Z,0
2017-07-06T00:44:53.195Z,0
2017-07-06T00:45:33.703Z,0
2017-07-06T00:46:14.254Z,0
2017-07-06T00:46:54.906Z,0
2017-07-06T00:47:35.460Z,0
2017-07-06T00:48:15.935Z,0
2017-07-06T00:48:56.501Z,0
2017-07-06T00:49:36.981Z,0
2017-07-06T00:50:17.536Z,0
2017-07-06T00:50:58.006Z,0
2017-07-06T00:51:38.533Z,0
2017-07-06T00:52:18.998Z,0
2017-07-06T00:52:59.508Z,0
2017-07-06T00:53:40.041Z,0
2017-07-06T00:54:20.586Z,0
2017-07-06T00:55:01.029Z,0
2017-07-06T00:55:41.542Z,0
2017-07-06T00:56:22.077Z,0
2017-07-06T00:57:02.577Z,0
2017-07-06T00:57:43.142Z,0
2017-07-06T00:58:23.678Z,0
2017-07-06T00:59:04.135Z,0
2017-07-06T00:59:44.613Z,0
2017-07-06T01:00:25.194Z,0
2017-07-06T01:01:05.658Z,0
2017-07-06T01:01:46.161Z,0
2017-07-06T01:02:26.658Z,0
2017-07-06T01:03:07.178Z,0
2017-07-06T01:03:47.695Z,0
2017-07-06T01:04:28.222Z,0
2017-07-06T01:05:08.781Z,0
2017-07-06T01:05:49.257Z,0
2017-07-06T01:06:29.720Z,0
2017-07-06T01:07:10.283Z,0
2017-07-06T01:07:50.712Z,0
2017-07-06T01:08:31.255Z,0
2017-07-06T01:09:11.709Z,0
2017-07-06T01:09:52.285Z,0
2017-07-06T01:10:32.755Z,0
2017-07-06T01:11:13.281Z,0
2017-07-06T01:11:53.726Z,0
2017-07-06T01:12:34.276Z,0
2017-07-06T01:13:14.753Z,0
2017-07-06T01:13:55.262Z,0
2017-07-06T01:14:35.807Z,0
2017-07-06T01:15:16.273Z,0
2017-07-06T01:15:56.771Z,0
2017-07-06T01:16:37.285Z,0
2017-07-06T01:17:17.805Z,0
2017-07-06T01:17:58.337Z,0
2017-07-06T01:18:38.857Z,0
2017-07-06T01:19:19.341Z,0
2017-07-06T01:19:59.797Z,0
2017-07-06T01:20:40.309Z,0
2017-07-06T01:21:20.796Z,0
2017-07-06T01:22:01.348Z,0
2017-07-06T01:22:41.829Z,0
2017-07-06T01:23:22.331Z,0
2017-07-06T01:24:02.850Z,0
2017-07-06T01:24:43.373Z,0
2017-07-06T01:25:23.859Z,0
2017-07-06T01:26:04.366Z,0
2017-07-06T01:26:44.894Z,0
2017-07-06T01:27:25.412Z,0
2017-07-06T01:28:05.928Z,0
2017-07-06T01:28:46.379Z,0
2017-07-06T01:29:26.933Z,0
2017-07-06T01:30:07.404Z,0
2017-07-06T01:30:47.903Z,0
2017-07-06T01:31:28.510Z,0
2017-07-06T01:32:08.932Z,0
2017-07-06T01:32:49.420Z,0
2017-07-06T01:33:29.891Z,0
2017-07-06T01:34:10.389Z,0
2017-07-06T01:34:50.969Z,0
2017-07-06T01:35:31.415Z,0
2017-07-06T01:36:11.882Z,0
2017-07-06T01:36:52.367Z,0
2017-07-06T01:37:32.909Z,0
2017-07-06T01:38:13.417Z,0
2017-07-06T01:38:53.923Z,0
2017-07-06T01:39:34.444Z,0
2017-07-06T01:40:14.906Z,0
2017-07-06T01:40:55.383Z,0
2017-07-06T01:41:35.871Z,0
2017-07-06T01:42:16.381Z,0
2017-07-06T01:42:56.858Z,0
2017-07-06T01:43:37.364Z,0
2017-07-06T01:44:17.893Z,0
2017-07-06T01:44:58.417Z,0
2017-07-06T01:45:39.895Z,0
2017-07-06T01:46:20.393Z,0
2017-07-06T01:47:00.891Z,0
2017-07-06T01:47:41.390Z,0
2017-07-06T01:48:21.924Z,0
2017-07-06T01:49:02.404Z,0
2017-07-06T01:49:42.893Z,0
2017-07-06T01:50:23.438Z,0
2017-07-06T01:51:03.905Z,0
2017-07-06T01:51:44.501Z,0
2017-07-06T01:52:24.996Z,0
2017-07-06T01:53:05.473Z,0
2017-07-06T01:53:45.990Z,0
2017-07-06T01:54:26.528Z,0
2017-07-06T01:55:06.990Z,0
2017-07-06T01:55:47.544Z,0
2017-07-06T01:56:28.047Z,0
2017-07-06T01:57:08.572Z,0
2017-07-06T01:57:49.018Z,0
2017-07-06T01:58:29.606Z,0
2017-07-06T01:59:10.082Z,0
2017-07-06T01:59:50.560Z,0
2017-07-06T02:00:31.091Z,0
2017-07-06T02:01:11.603Z,0
2017-07-06T02:01:52.137Z,0
2017-07-06T02:02:32.634Z,0
2017-07-06T02:03:13.109Z,0
2017-07-06T02:03:53.667Z,0
2017-07-06T02:04:34.142Z,0
2017-07-06T02:05:14.691Z,0
2017-07-06T02:05:55.156Z,0
2017-07-06T02:06:35.677Z,0
2017-07-06T02:07:16.097Z,0
2017-07-06T02:07:56.635Z,0
2017-07-06T02:08:37.146Z,0
2017-07-06T02:09:17.681Z,0
2017-07-06T02:09:58.185Z,0
2017-07-06T02:10:38.690Z,0
2017-07-06T02:11:19.184Z,0
2017-07-06T02:11:59.704Z,0
2017-07-06T02:12:40.318Z,0
2017-07-06T02:13:20.858Z,0
2017-07-06T02:14:01.346Z,0
2017-07-06T02:14:41.940Z,0
2017-07-06T02:15:22.386Z,0
2017-07-06T02:16:02.896Z,0
2017-07-06T02:16:43.394Z,0
2017-07-06T02:17:23.899Z,0
2017-07-06T02:18:04.406Z,0
2017-07-06T02:18:44.943Z,0
2017-07-06T02:19:25.422Z,0
2017-07-06T02:20:05.902Z,0
2017-07-06T02:20:46.405Z,0
2017-07-06T02:21:26.898Z,0
2017-07-06T02:22:07.434Z,0
2017-07-06T02:22:47.936Z,0
2017-07-06T02:23:28.458Z,0
2017-07-06T02:24:08.904Z,0
2017-07-06T02:24:49.397Z,0
2017-07-06T02:25:29.888Z,0
2017-07-06T02:26:10.392Z,0
2017-07-06T02:26:50.945Z,0
2017-07-06T02:27:31.403Z,0
2017-07-06T02:28:11.937Z,0
2017-07-06T02:28:52.426Z,0
2017-07-06T02:29:32.947Z,0
2017-07-06T02:30:13.512Z,0
2017-07-06T02:30:53.998Z,0
2017-07-06T02:31:34.500Z,0
2017-07-06T02:32:15.047Z,0
2017-07-06T02:32:55.479Z,0
2017-07-06T02:33:35.978Z,0
2017-07-06T02:34:16.511Z,0
2017-07-06T02:34:57.034Z,0
2017-07-06T02:35:37.515Z,0
2017-07-06T02:36:17.946Z,0
2017-07-06T02:36:58.510Z,0
2017-07-06T02:37:39.024Z,0
2017-07-06T02:38:19.535Z,0
2017-07-06T02:39:00.027Z,0
2017-07-06T02:39:40.572Z,0
2017-07-06T02:40:21.082Z,0
2017-07-06T02:41:01.787Z,0
2017-07-06T02:41:42.362Z,0
2017-07-06T02:42:22.797Z,0
2017-07-06T02:43:03.364Z,0
2017-07-06T02:43:43.804Z,0
2017-07-06T02:44:24.310Z,0
2017-07-06T02:45:04.860Z,0
2017-07-06T02:45:45.332Z,0
2017-07-06T02:46:25.817Z,0
2017-07-06T02:47:06.287Z,0
2017-07-06T02:47:46.818Z,0
2017-07-06T02:48:27.330Z,0
2017-07-06T02:49:07.781Z,0
2017-07-06T02:49:48.290Z,0
2017-07-06T02:50:28.803Z,0
2017-07-06T02:51:09.287Z,0
2017-07-06T02:51:49.826Z,0
2017-07-06T02:52:30.312Z,0
2017-07-06T02:53:10.803Z,0
2017-07-06T02:53:51.307Z,0
2017-07-06T02:54:31.798Z,0
2017-07-06T02:55:12.322Z,0
2017-07-06T02:55:52.808Z,0
2017-07-06T02:56:33.352Z,0
2017-07-06T02:57:13.830Z,0
2017-07-06T02:57:54.375Z,0
2017-07-06T02:58:34.905Z,0
2017-07-06T02:59:15.385Z,0
2017-07-06T02:59:55.889Z,0
2017-07-06T03:00:36.367Z,0
2017-07-06T03:01:16.872Z,0
2017-07-06T03:01:57.405Z,0
2017-07-06T03:02:37.950Z,0
2017-07-06T03:03:18.430Z,0
2017-07-06T03:03:58.940Z,0
2017-07-06T03:04:39.408Z,0
2017-07-06T03:05:19.942Z,0
2017-07-06T03:06:00.464Z,0
2017-07-06T03:06:40.914Z,0
2017-07-06T03:07:21.407Z,0
2017-07-06T03:08:01.916Z,0
2017-07-06T03:08:42.419Z,0
2017-07-06T03:09:23.086Z,0
2017-07-06T03:10:03.610Z,0
2017-07-06T03:10:44.112Z,0
2017-07-06T03:11:24.642Z,0
2017-07-06T03:12:05.092Z,0
2017-07-06T03:12:45.638Z,0
2017-07-06T03:13:26.107Z,0
2017-07-06T03:14:06.621Z,0
2017-07-06T03:14:47.107Z,0
2017-07-06T03:15:27.609Z,0
2017-07-06T03:16:08.077Z,0
2017-07-06T03:16:48.718Z,0
2017-07-06T03:17:29.158Z,0
2017-07-06T03:18:09.637Z,0
2017-07-06T03:18:50.080Z,0
2017-07-06T03:19:30.652Z,0
2017-07-06T03:20:11.097Z,0
2017-07-06T03:20:51.632Z,0
2017-07-06T03:21:32.159Z,0
2017-07-06T03:22:12.663Z,5
2017-07-06T03:22:53.256Z,5
2017-07-06T03:23:33.833Z,5
2017-07-06T03:24:14.382Z,5
2017-07-06T03:24:54.841Z,5
2017-07-06T03:25:35.482Z,5
2017-07-06T03:26:15.989Z,5
2017-07-06T03:26:56.487Z,5
2017-07-06T03:27:37.011Z,5
2017-07-06T03:28:17.491Z,5
2017-07-06T03:28:57.981Z,5
2017-07-06T03:29:38.487Z,5
2017-07-06T03:30:18.951Z,5
2017-07-06T03:30:59.487Z,10
2017-07-06T03:31:39.993Z,10
2017-07-06T03:32:20.499Z,10
2017-07-06T03:33:00.996Z,10
2017-07-06T03:33:41.496Z,10
2017-07-06T03:34:22.005Z,10
2017-07-06T03:35:02.504Z,10
2017-07-06T03:35:43.025Z,10
2017-07-06T03:36:23.484Z,10
2017-07-06T03:37:04.014Z,10
2017-07-06T03:37:44.492Z,15
2017-07-06T03:38:25.003Z,15
2017-07-06T03:39:05.517Z,15
2017-07-06T03:39:45.983Z,15
2017-07-06T03:40:26.528Z,15
2017-07-06T03:41:07.004Z,15
2017-07-06T03:41:47.505Z,15
2017-07-06T03:42:28.017Z,15
2017-07-06T03:43:08.508Z,20
2017-07-06T03:43:49.032Z,20
2017-07-06T03:44:29.563Z,20
2017-07-06T03:45:10.079Z,20
2017-07-06T03:45:50.577Z,20
2017-07-06T03:46:31.109Z,20
2017-07-06T03:47:11.690Z,20
2017-07-06T03:47:52.197Z,25
2017-07-06T03:48:32.723Z,25
2017-07-06T03:49:13.239Z,25
2017-07-06T03:49:53.713Z,25
2017-07-06T03:50:34.191Z,25
2017-07-06T03:51:14.748Z,25
2017-07-06T03:51:55.207Z,30
2017-07-06T03:52:35.685Z,30
2017-07-06T03:53:16.187Z,30
2017-07-06T03:53:56.712Z,30
2017-07-06T03:54:37.173Z,30
2017-07-06T03:55:17.742Z,30
2017-07-06T03:55:58.230Z,30
2017-07-06T03:56:38.735Z,35
2017-07-06T03:57:19.226Z,35
2017-07-06T03:57:59.731Z,35
2017-07-06T03:58:40.203Z,35
2017-07-06T03:59:20.713Z,35
2017-07-06T04:00:01.245Z,40
2017-07-06T04:00:41.709Z,40
2017-07-06T04:01:22.202Z,40
2017-07-06T04:02:02.737Z,40
2017-07-06T04:02:43.201Z,40
2017-07-06T04:03:23.697Z,40
2017-07-06T04:04:04.193Z,45
2017-07-06T04:04:44.687Z,45
2017-07-06T04:05:25.190Z,45
2017-07-06T04:06:05.729Z,45
2017-07-06T04:06:46.245Z,45
2017-07-06T04:07:26.738Z,45
2017-07-06T04:08:07.243Z,50
2017-07-06T04:08:47.748Z,50
2017-07-06T04:09:28.353Z,50
2017-07-06T04:10:09.690Z,55
2017-07-06T04:10:50.199Z,55
2017-07-06T04:11:30.757Z,55
2017-07-06T04:12:11.282Z,55
2017-07-06T04:12:51.741Z,55
2017-07-06T04:13:32.259Z,60
2017-07-06T04:14:12.762Z,55
2017-07-06T04:14:53.227Z,55
2017-07-06T04:15:33.753Z,55
2017-07-06T04:16:14.254Z,55
2017-07-06T04:16:54.777Z,60
2017-07-06T04:17:35.314Z,60
2017-07-06T04:18:15.890Z,60
2017-07-06T04:18:56.412Z,60
2017-07-06T04:19:36.921Z,60
2017-07-06T04:20:17.398Z,60
2017-07-06T04:20:57.901Z,65
2017-07-06T04:21:38.416Z,65
2017-07-06T04:22:18.869Z,65
2017-07-06T04:22:59.426Z,65
2017-07-06T04:23:39.903Z,65
2017-07-06T04:24:20.402Z,65
2017-07-06T04:25:00.897Z,65
2017-07-06T04:25:41.400Z,70
2017-07-06T04:26:21.926Z,70
2017-07-06T04:27:02.465Z,70
2017-07-06T04:27:42.901Z,70
2017-07-06T04:28:23.507Z,70
2017-07-06T04:29:04.025Z,70
2017-07-06T04:29:44.496Z,75
2017-07-06T04:30:25.034Z,75
2017-07-06T04:31:05.495Z,75
2017-07-06T04:31:46.003Z,75
2017-07-06T04:32:26.552Z,75
2017-07-06T04:33:07.052Z,75
2017-07-06T04:33:47.574Z,75
2017-07-06T04:34:28.062Z,80
2017-07-06T04:35:08.591Z,80
2017-07-06T04:35:49.222Z,80
2017-07-06T04:36:29.732Z,80
2017-07-06T04:37:10.225Z,80
2017-07-06T04:37:50.795Z,85
2017-07-06T04:38:31.380Z,85
2017-07-06T04:39:11.981Z,90
2017-07-06T04:39:52.513Z,105
2017-07-06T04:40:33.732Z,130
2017-07-06T04:41:14.235Z,155
2017-07-06T04:41:54.736Z,150
2017-07-06T04:42:35.235Z,155
2017-07-06T04:43:15.740Z,185
2017-07-06T04:43:56.240Z,255
2017-07-06T04:44:36.746Z,325
2017-07-06T04:45:17.374Z,325
2017-07-06T04:45:57.854Z,275
2017-07-06T04:46:38.375Z,185
2017-07-06T04:47:18.843Z,125
2017-07-06T04:47:59.317Z,115
2017-07-06T04:48:39.828Z,120
2017-07-06T04:49:20.301Z,170
2017-07-06T04:50:00.863Z,220
2017-07-06T04:50:41.354Z,210
2017-07-06T04:51:21.912Z,140
2017-07-06T04:52:02.449Z,105
2017-07-06T04:52:42.998Z,95
2017-07-06T04:53:23.451Z,95
2017-07-06T04:54:03.926Z,100
2017-07-06T04:54:44.457Z,100
2017-07-06T04:55:24.942Z,105
2017-07-06T04:56:05.408Z,110
2017-07-06T04:56:45.892Z,115
2017-07-06T04:57:26.498Z,125
2017-07-06T04:58:06.923Z,135
2017-07-06T04:58:47.443Z,125
2017-07-06T04:59:27.967Z,115
2017-07-06T05:00:08.457Z,110
2017-07-06T05:00:48.930Z,115
2017-07-06T05:01:29.428Z,120
2017-07-06T05:02:09.953Z,120
2017-07-06T05:02:50.460Z,120
2017-07-06T05:03:30.931Z,130
2017-07-06T05:04:11.458Z,125
2017-07-06T05:04:51.925Z,115
2017-07-06T05:05:32.429Z,100
2017-07-06T05:06:12.942Z,100
2017-07-06T05:06:53.541Z,105
2017-07-06T05:07:34.023Z,105
2017-07-06T05:08:14.487Z,110
2017-07-06T05:08:54.997Z,110
2017-07-06T05:09:35.589Z,110
2017-07-06T05:10:16.115Z,100
2017-07-06T05:10:56.588Z,105
2017-07-06T05:11:37.125Z,105
2017-07-06T05:12:17.579Z,105
2017-07-06T05:12:58.107Z,110
2017-07-06T05:13:38.893Z,105
2017-07-06T05:14:19.438Z,110
2017-07-06T05:14:59.901Z,110
2017-07-06T05:15:40.434Z,105
2017-07-06T05:16:20.931Z,110
2017-07-06T05:17:01.504Z,120
2017-07-06T05:17:41.954Z,150
2017-07-06T05:18:22.497Z,180
2017-07-06T05:19:03.002Z,180
2017-07-06T05:19:43.504Z,155
2017-07-06T05:20:24.371Z,135
2017-07-06T05:21:04.847Z,135
2017-07-06T05:21:45.470Z,150
2017-07-06T05:22:26.017Z,155
2017-07-06T05:23:06.471Z,160
2017-07-06T05:23:46.987Z,170
2017-07-06T05:24:27.495Z,165
2017-07-06T05:25:07.986Z,155
2017-07-06T05:25:48.517Z,135
2017-07-06T05:26:29.026Z,120
2017-07-06T05:27:09.499Z,115
2017-07-06T05:27:50.015Z,120
2017-07-06T05:28:30.510Z,120
2017-07-06T05:29:11.036Z,125
2017-07-06T05:29:51.537Z,130
2017-07-06T05:30:32.018Z,135
2017-07-06T05:31:12.490Z,145
2017-07-06T05:31:53.028Z,155
2017-07-06T05:32:33.536Z,190
2017-07-06T05:33:13.996Z,230
2017-07-06T05:33:54.530Z,225
2017-07-06T05:34:35.020Z,190
2017-07-06T05:35:15.515Z,160
2017-07-06T05:35:56.019Z,145
2017-07-06T05:36:36.542Z,135
2017-07-06T05:37:17.019Z,125
2017-07-06T05:37:57.516Z,125
2017-07-06T05:38:38.005Z,120
2017-07-06T05:39:18.640Z,120
2017-07-06T05:39:59.267Z,120
2017-07-06T05:40:39.933Z,115
2017-07-06T05:41:20.471Z,115
2017-07-06T05:42:00.974Z,115
2017-07-06T05:42:41.517Z,115
2017-07-06T05:43:21.977Z,120
2017-07-06T05:44:02.464Z,120
2017-07-06T05:44:42.955Z,120
2017-07-06T05:45:23.520Z,120
2017-07-06T05:46:04.180Z,120
2017-07-06T05:46:44.678Z,120
2017-07-06T05:47:25.190Z,120
2017-07-06T05:48:05.732Z,125
2017-07-06T05:48:46.174Z,125
2017-07-06T05:49:26.665Z,125
2017-07-06T05:50:07.164Z,125
2017-07-06T05:50:47.692Z,125
2017-07-06T05:51:28.236Z,125
2017-07-06T05:52:08.740Z,125
2017-07-06T05:52:49.279Z,125
2017-07-06T05:53:29.814Z,125
2017-07-06T05:54:10.318Z,130
2017-07-06T05:54:50.849Z,130
2017-07-06T05:55:31.340Z,135
2017-07-06T05:56:11.820Z,140
2017-07-06T05:56:52.369Z,140
2017-07-06T05:57:32.863Z,160
2017-07-06T05:58:13.384Z,195
2017-07-06T05:58:53.898Z,255
2017-07-06T05:59:34.387Z,350
2017-07-06T06:00:14.916Z,415
2017-07-06T06:00:55.434Z,450
2017-07-06T06:01:36.058Z,460
2017-07-06T06:02:16.524Z,455
2017-07-06T06:02:57.054Z,450
2017-07-06T06:03:37.594Z,440
2017-07-06T06:04:18.177Z,430
2017-07-06T06:04:58.674Z,420
2017-07-06T06:05:39.159Z,410
2017-07-06T06:06:19.666Z,400
2017-07-06T06:07:00.163Z,395
2017-07-06T06:07:40.676Z,395
2017-07-06T06:08:21.216Z,400
2017-07-06T06:09:01.702Z,400
2017-07-06T06:09:42.173Z,400
2017-07-06T06:10:22.678Z,405
2017-07-06T06:11:03.220Z,390
2017-07-06T06:11:43.719Z,370
2017-07-06T06:12:24.230Z,340
2017-07-06T06:13:04.744Z,330
2017-07-06T06:13:45.239Z,340
2017-07-06T06:14:25.767Z,375
2017-07-06T06:15:06.390Z,405
2017-07-06T06:15:46.877Z,420
2017-07-06T06:16:27.388Z,415
2017-07-06T06:17:07.919Z,415
2017-07-06T06:17:48.431Z,415
2017-07-06T06:18:28.928Z,420
2017-07-06T06:20:57.410Z,425
2017-07-06T06:21:37.940Z,415
2017-07-06T06:22:18.467Z,400
2017-07-06T06:22:59.010Z,410
2017-07-06T06:23:39.539Z,435
2017-07-06T06:24:20.072Z,430
2017-07-06T06:25:00.581Z,425
2017-07-06T06:25:41.124Z,420
2017-07-06T06:26:21.675Z,410
2017-07-06T06:27:02.231Z,400
2017-07-06T06:27:42.763Z,380
2017-07-06T06:28:23.278Z,355
2017-07-06T06:29:04.128Z,330
2017-07-06T06:29:44.716Z,315
2017-07-06T06:30:25.124Z,315
2017-07-06T06:31:05.652Z,310
2017-07-06T06:31:46.173Z,315
2017-07-06T06:32:26.683Z,305
2017-07-06T06:33:07.155Z,305
2017-07-06T06:33:47.729Z,300
2017-07-06T06:34:28.225Z,305
2017-07-06T06:35:08.727Z,300
2017-07-06T06:35:49.284Z,295
2017-07-06T06:36:29.730Z,295
2017-07-06T06:37:10.279Z,295
2017-07-06T06:37:50.780Z,290
2017-07-06T06:38:31.271Z,290
2017-07-06T06:39:11.789Z,290
2017-07-06T06:39:52.368Z,295
2017-07-06T06:40:32.878Z,290
2017-07-06T06:41:13.387Z,295
2017-07-06T06:41:53.983Z,290
2017-07-06T06:42:34.435Z,285
2017-07-06T06:43:14.937Z,285
2017-07-06T06:43:55.414Z,285
2017-07-06T06:44:35.890Z,280
2017-07-06T06:45:16.466Z,280
2017-07-06T06:45:56.930Z,280
2017-07-06T06:46:37.446Z,275
2017-07-06T06:47:17.981Z,280
2017-07-06T06:47:58.486Z,275
2017-07-06T06:48:39.026Z,275
2017-07-06T06:49:19.517Z,270
2017-07-06T06:50:00.011Z,270
2017-07-06T06:50:40.477Z,270
2017-07-06T06:51:21.022Z,275
2017-07-06T06:52:01.476Z,265
2017-07-06T06:52:42.222Z,265
2017-07-06T06:53:22.495Z,265
2017-07-06T06:54:03.124Z,265
2017-07-06T06:54:43.665Z,265
2017-07-06T06:55:24.168Z,265
2017-07-06T06:56:04.701Z,260
2017-07-06T06:56:45.223Z,260
2017-07-06T06:57:25.918Z,260
2017-07-06T06:58:06.637Z,260
2017-07-06T06:58:47.183Z,260
2017-07-06T06:59:27.692Z,260
2017-07-06T07:00:08.242Z,260
2017-07-06T07:00:48.739Z,255
2017-07-06T07:01:29.211Z,255
2017-07-06T07:02:09.778Z,255
2017-07-06T07:02:50.284Z,255
2017-07-06T07:03:30.774Z,255
2017-07-06T07:04:11.285Z,255
2017-07-06T07:04:51.781Z,260
2017-07-06T07:05:32.298Z,255
2017-07-06T07:06:12.804Z,260
2017-07-06T07:06:53.273Z,250
2017-07-06T07:07:33.814Z,255
2017-07-06T07:08:14.294Z,250
2017-07-06T07:08:54.813Z,250
2017-07-06T07:09:35.339Z,255
2017-07-06T07:10:15.841Z,250
2017-07-06T07:10:56.384Z,250
2017-07-06T07:11:36.918Z,250
2017-07-06T07:12:17.401Z,250
2017-07-06T07:12:57.881Z,250
2017-07-06T07:13:38.341Z,250
2017-07-06T07:14:18.957Z,250
2017-07-06T07:14:59.377Z,250
2017-07-06T07:15:39.896Z,245
2017-07-06T07:16:20.380Z,245
2017-07-06T07:17:01.438Z,245
2017-07-06T07:17:41.965Z,245
2017-07-06T07:18:22.450Z,245
2017-07-06T07:19:02.950Z,245
2017-07-06T07:19:43.470Z,245
2017-07-06T07:20:24.029Z,245
2017-07-06T07:21:04.478Z,245
2017-07-06T07:21:45.010Z,245
2017-07-06T07:22:25.538Z,245
2017-07-06T07:23:06.043Z,245
2017-07-06T07:23:46.539Z,245
2017-07-06T07:24:27.061Z,245
2017-07-06T07:25:07.557Z,245
2017-07-06T07:25:48.112Z,245
2017-07-06T07:26:28.640Z,245
2017-07-06T07:27:09.095Z,245
2017-07-06T07:27:49.605Z,245
2017-07-06T07:28:30.058Z,245
2017-07-06T07:29:10.597Z,245
2017-07-06T07:29:51.105Z,245
2017-07-06T07:30:31.600Z,245
2017-07-06T07:31:12.136Z,245
2017-07-06T07:31:52.569Z,245
2017-07-06T07:32:33.080Z,245
2017-07-06T07:33:13.592Z,240
2017-07-06T07:33:54.079Z,240
2017-07-06T07:34:34.631Z,240
2017-07-06T07:35:15.148Z,240
2017-07-06T07:35:55.593Z,240
2017-07-06T07:36:36.110Z,240
2017-07-06T07:37:16.675Z,240
2017-07-06T07:37:57.160Z,240
2017-07-06T07:38:37.691Z,240
2017-07-06T07:39:18.221Z,240
2017-07-06T07:39:58.738Z,235
2017-07-06T07:40:39.279Z,235
2017-07-06T07:41:19.747Z,235
2017-07-06T07:42:00.233Z,235
2017-07-06T07:42:40.731Z,235
2017-07-06T07:43:21.245Z,235
2017-07-06T07:44:01.741Z,235
2017-07-06T07:44:42.212Z,230
2017-07-06T07:45:22.732Z,230
2017-07-06T07:46:03.245Z,230
2017-07-06T07:46:43.746Z,230
2017-07-06T07:47:24.287Z,230
2017-07-06T07:48:04.853Z,230
2017-07-06T07:48:45.409Z,230
2017-07-06T07:49:25.966Z,230
2017-07-06T07:50:06.490Z,225
2017-07-06T07:50:47.024Z,225
2017-07-06T07:51:27.532Z,225
2017-07-06T07:52:08.046Z,225
2017-07-06T07:52:48.536Z,225
2017-07-06T07:53:29.074Z,225
2017-07-06T07:54:09.599Z,225
2017-07-06T07:54:50.105Z,220
2017-07-06T07:55:30.645Z,220
2017-07-06T07:56:11.191Z,220
2017-07-06T07:56:51.704Z,220
2017-07-06T07:57:32.189Z,220
2017-07-06T07:58:12.697Z,220
2017-07-06T07:58:53.236Z,215
2017-07-06T07:59:33.701Z,215
2017-07-06T08:00:14.238Z,215
2017-07-06T08:00:54.710Z,215
2017-07-06T08:01:35.216Z,215
2017-07-06T08:02:15.702Z,210
2017-07-06T08:02:56.248Z,210
2017-07-06T08:03:36.815Z,210
2017-07-06T08:04:17.335Z,210
2017-07-06T08:04:57.810Z,210
2017-07-06T08:05:38.307Z,210
2017-07-06T08:06:18.811Z,205
2017-07-06T08:06:59.335Z,205
2017-07-06T08:07:39.826Z,205
2017-07-06T08:08:20.318Z,205
2017-07-06T08:09:00.837Z,205
2017-07-06T08:09:41.337Z,205
2017-07-06T08:10:21.858Z,200
2017-07-06T08:11:02.372Z,200
2017-07-06T08:11:42.859Z,200
2017-07-06T08:12:23.363Z,200
2017-07-06T08:13:03.903Z,195
2017-07-06T08:13:44.390Z,195
2017-07-06T08:14:24.910Z,195
2017-07-06T08:15:05.422Z,195
2017-07-06T08:15:45.930Z,195
2017-07-06T08:16:26.415Z,195
2017-07-06T08:17:06.965Z,195
2017-07-06T08:17:47.448Z,195
2017-07-06T08:18:27.906Z,195
2017-07-06T08:19:08.427Z,195
2017-07-06T08:19:48.912Z,190
2017-07-06T08:20:29.476Z,190
2017-07-06T08:21:09.952Z,190
2017-07-06T08:21:50.528Z,195
2017-07-06T08:22:31.061Z,190
2017-07-06T08:23:11.603Z,185
2017-07-06T08:23:52.133Z,185
2017-07-06T08:24:32.671Z,185
2017-07-06T08:25:13.124Z,185
2017-07-06T08:25:53.655Z,185
2017-07-06T08:26:34.172Z,185
2017-07-06T08:27:14.700Z,180
2017-07-06T08:27:55.211Z,180
2017-07-06T08:28:35.700Z,180
2017-07-06T08:29:16.259Z,180
2017-07-06T08:29:56.898Z,175
2017-07-06T08:30:37.429Z,170
2017-07-06T08:31:17.949Z,170
2017-07-06T08:31:58.434Z,165
2017-07-06T08:32:38.968Z,160
2017-07-06T08:33:19.478Z,155
2017-07-06T08:34:00.014Z,150
2017-07-06T08:34:40.444Z,150
2017-07-06T08:35:20.959Z,150
2017-07-06T08:36:01.469Z,150
2017-07-06T08:36:41.971Z,145
2017-07-06T08:37:22.455Z,145
2017-07-06T08:38:02.986Z,145
2017-07-06T08:38:43.500Z,145
2017-07-06T08:39:24.005Z,145
2017-07-06T08:40:04.502Z,145
2017-07-06T08:40:44.974Z,145
2017-07-06T08:41:25.465Z,145
2017-07-06T08:42:05.992Z,145
2017-07-06T08:42:46.516Z,145
2017-07-06T08:43:26.994Z,145
2017-07-06T08:44:07.506Z,145
2017-07-06T08:44:48.066Z,145
2017-07-06T08:45:28.562Z,145
2017-07-06T08:46:09.068Z,145
2017-07-06T08:46:49.609Z,145
2017-07-06T08:47:30.105Z,145
2017-07-06T08:48:10.614Z,145
2017-07-06T08:48:51.162Z,145
2017-07-06T08:49:31.670Z,145
2017-07-06T08:50:12.217Z,145
2017-07-06T08:50:52.731Z,145
2017-07-06T08:51:33.235Z,145
2017-07-06T08:52:13.823Z,145
2017-07-06T08:52:54.261Z,140
2017-07-06T08:53:34.845Z,140
2017-07-06T08:54:15.322Z,140
2017-07-06T08:54:55.869Z,140
2017-07-06T08:55:36.348Z,140
2017-07-06T08:56:16.829Z,140
2017-07-06T08:56:57.358Z,140
2017-07-06T08:57:37.845Z,140
2017-07-06T08:58:18.384Z,140
2017-07-06T08:58:58.876Z,140
2017-07-06T08:59:39.393Z,140
2017-07-06T09:00:19.928Z,135
2017-07-06T09:01:00.419Z,135
2017-07-06T09:01:40.899Z,135
2017-07-06T09:02:21.418Z,135
2017-07-06T09:03:01.925Z,135
2017-07-06T09:03:42.421Z,135
2017-07-06T09:04:22.919Z,135
2017-07-06T09:05:03.406Z,135
2017-07-06T09:05:43.959Z,135
2017-07-06T09:06:24.429Z,135
2017-07-06T09:07:04.970Z,135
2017-07-06T09:07:45.465Z,135
2017-07-06T09:08:26.048Z,135
2017-07-06T09:09:06.528Z,135
2017-07-06T09:09:47.067Z,135
2017-07-06T09:10:27.506Z,135
2017-07-06T09:11:08.028Z,135
2017-07-06T09:11:48.548Z,135
2017-07-06T09:12:29.082Z,135
2017-07-06T09:13:09.607Z,130
2017-07-06T09:13:50.105Z,130
2017-07-06T09:14:30.662Z,130
2017-07-06T09:15:11.128Z,130
2017-07-06T09:15:51.611Z,130
2017-07-06T09:16:32.161Z,130
2017-07-06T09:17:12.697Z,130
2017-07-06T09:17:53.107Z,130
2017-07-06T09:18:33.659Z,130
2017-07-06T09:19:14.127Z,130
2017-07-06T09:19:54.710Z,130
2017-07-06T09:20:35.163Z,130
2017-07-06T09:21:15.678Z,130
2017-07-06T09:21:56.213Z,130
2017-07-06T09:22:36.758Z,130
2017-07-06T09:23:17.258Z,130
2017-07-06T09:23:57.824Z,130
2017-07-06T09:24:38.278Z,130
2017-07-06T09:25:18.813Z,130
2017-07-06T09:25:59.303Z,130
2017-07-06T09:26:39.978Z,130
2017-07-06T09:27:20.463Z,130
2017-07-06T09:28:01.044Z,130
2017-07-06T09:28:41.510Z,130
2017-07-06T09:29:22.020Z,130
2017-07-06T09:30:02.513Z,130
2017-07-06T09:30:42.967Z,130
2017-07-06T09:31:23.466Z,130
2017-07-06T09:32:04.021Z,130
2017-07-06T09:32:44.518Z,135
2017-07-06T09:33:25.022Z,130
2017-07-06T09:34:05.537Z,130
2017-07-06T09:34:46.109Z,130
2017-07-06T09:35:26.657Z,130
2017-07-06T09:36:07.178Z,130
2017-07-06T09:36:47.658Z,130